Helliar — 2EPP5 — position and weather

sailwx.info

Track history (hours):
 
Tides and Currents Weather Stations Pressure Air Temp Water Temp Dewpoint Dewpoint Depression Visibility Wind Speed Wind Dir Waves Ship Positions

Helliar

Last reported at 2018-May-19 18:36 UTC. Time now 2018-May-21 05:25 UTC.
Position N 57°37' W 001°38'.

Length 122 m; draft 5.4 m.

Type: Cargo ship. MMSI: 235087119.

Date/timePositionNaut miles runAvg speedWind from/ knotsBaromVisibWave heightAir tempDewpointWater temp
2018-May-19 18:36N 57°37' W 001°38'313.9
2018-May-19 18:21N 57°33' W 001°38'513.7
2018-May-19 18:00N 57°29' W 001°39'813.6
2018-May-19 17:27N 57°21' W 001°44'713.1
2018-May-19 16:56N 57°16' W 001°51'613.0
2018-May-19 16:30N 57°12' W 001°57'5 9.8
2018-May-19 15:59N 57°09' W 002°05'0 0.0
2018-May-19 15:29N 57°09' W 002°05'0 0.0
2018-May-19 14:59N 57°09' W 002°05'0 0.0
2018-May-19 14:29N 57°09' W 002°05'0 0.0
2018-May-19 13:59N 57°09' W 002°05'0 0.0
2018-May-19 13:29N 57°09' W 002°05'0 0.0
2018-May-19 12:59N 57°09' W 002°05'0 0.0
2018-May-19 12:29N 57°09' W 002°05'0 0.0
2018-May-19 11:59N 57°09' W 002°05'0 0.0
2018-May-19 11:29N 57°09' W 002°05'0 0.0
2018-May-19 10:59N 57°09' W 002°05'0 0.0
2018-May-19 10:29N 57°09' W 002°05'0 0.0
2018-May-19 09:59N 57°09' W 002°05'0 0.0
2018-May-19 09:29N 57°09' W 002°05'0 0.0
2018-May-19 08:59N 57°09' W 002°05'0 0.0
2018-May-19 08:29N 57°09' W 002°05'0 0.0
2018-May-19 07:59N 57°09' W 002°05'0 0.0
2018-May-19 07:29N 57°09' W 002°05'0 0.0
2018-May-19 06:59N 57°09' W 002°05'0 0.7
2018-May-19 06:30N 57°08' W 002°04'611.0
2018-May-19 06:00N 57°12' W 001°57'612.1
2018-May-19 05:30N 57°17' W 001°51'612.1
2018-May-19 05:00N 57°22' W 001°44'612.4
2018-May-19 04:30N 57°28' W 001°39'713.1
2018-May-19 04:00N 57°34' W 001°37'2 0.1
2018-May-17 19:07N 57°36' W 001°39'317.3
2018-May-17 18:56N 57°33' W 001°39'717.1
2018-May-17 18:30N 57°26' W 001°40'1116.8
2018-May-17 17:50N 57°16' W 001°51'516.2
2018-May-17 17:30N 57°12' W 001°56'611.2
2018-May-17 17:00N 57°09' W 002°05'0 0.3
2018-May-17 16:29N 57°09' W 002°05'0 0.0
2018-May-17 15:59N 57°09' W 002°05'0 0.0
2018-May-17 15:29N 57°09' W 002°05'0 0.0
2018-May-17 14:59N 57°09' W 002°05'0 0.0
2018-May-17 14:29N 57°09' W 002°05'0 0.0
2018-May-17 13:59N 57°09' W 002°05'0 0.0
2018-May-17 13:29N 57°09' W 002°05'0 0.0
2018-May-17 12:59N 57°09' W 002°05'0 0.0
2018-May-17 12:29N 57°09' W 002°05'0 0.0
2018-May-17 11:59N 57°09' W 002°05'0 0.0
2018-May-17 11:29N 57°09' W 002°05'0 0.0
2018-May-17 10:59N 57°09' W 002°05'0 0.0
2018-May-17 10:29N 57°09' W 002°05'0 0.0
2018-May-17 09:59N 57°09' W 002°05'0 0.0
2018-May-17 09:29N 57°09' W 002°05'0 0.0
2018-May-17 08:59N 57°09' W 002°05'0 0.0
2018-May-17 08:29N 57°09' W 002°05'0 0.0
2018-May-17 07:59N 57°09' W 002°05'0 0.0
2018-May-17 07:29N 57°09' W 002°05'0 0.0
2018-May-17 06:59N 57°09' W 002°05'0 0.8
2018-May-17 06:30N 57°09' W 002°05'5 9.9
2018-May-17 06:00N 57°12' W 001°58'611.6
2018-May-17 05:30N 57°17' W 001°52'611.5
2018-May-17 05:00N 57°21' W 001°46'612.3
2018-May-17 04:30N 57°27' W 001°40'612.7
2018-May-17 04:00N 57°33' W 001°38'4 0.1
2018-May-15 18:45N 57°37' W 001°37'416.4
2018-May-15 18:30N 57°33' W 001°37'816.7
2018-May-15 18:00N 57°25' W 001°44'917.1
2018-May-15 17:28N 57°17' W 001°52'816.6
2018-May-15 17:00N 57°11' W 001°60'4 7.2
2018-May-15 16:30N 57°09' W 002°05'0 0.0
2018-May-15 16:00N 57°09' W 002°05'0 0.0
2018-May-15 15:30N 57°09' W 002°05'0 0.0
2018-May-15 15:00N 57°09' W 002°05'0 0.0
2018-May-15 14:30N 57°09' W 002°05'0 0.0
2018-May-15 14:00N 57°09' W 002°05'0 0.0
2018-May-15 13:30N 57°09' W 002°05'0 0.0
2018-May-15 13:00N 57°09' W 002°05'0 0.0
2018-May-15 12:30N 57°09' W 002°05'0 0.0
2018-May-15 12:00N 57°09' W 002°05'0 0.0
2018-May-15 11:30N 57°09' W 002°05'0 0.0
2018-May-15 11:00N 57°09' W 002°05'0 0.0
2018-May-15 10:30N 57°09' W 002°05'0 0.0
2018-May-15 10:00N 57°09' W 002°05'0 0.0
2018-May-15 09:30N 57°09' W 002°05'0 0.0
2018-May-15 09:00N 57°09' W 002°05'0 0.0
2018-May-15 08:30N 57°09' W 002°05'0 0.0
2018-May-15 08:00N 57°09' W 002°05'0 0.0
2018-May-15 07:30N 57°09' W 002°05'0 0.0
2018-May-15 07:00N 57°09' W 002°05'0 0.4
2018-May-15 06:30N 57°09' W 002°05'4 8.9
2018-May-15 06:00N 57°12' W 001°58'612.2
2018-May-15 05:30N 57°17' W 001°52'612.0
2018-May-15 05:00N 57°22' W 001°46'612.1
2018-May-15 04:30N 57°27' W 001°40'612.4
2018-May-15 04:00N 57°33' W 001°38'713.5
2018-May-15 03:30N 57°40' W 001°38'713.9
2018-May-15 02:59N 57°47' W 001°37'714.2
2018-May-15 02:29N 57°54' W 001°37'  
2018-May-12 18:49N 57°45' W 001°37'412.2
2018-May-12 18:30N 57°42' W 001°37'713.5
2018-May-12 18:00N 57°35' W 001°37'714.1
2018-May-12 17:30N 57°28' W 001°38'913.8
2018-May-12 16:51N 57°20' W 001°47'514.0
2018-May-12 16:31N 57°17' W 001°52'713.7
2018-May-12 16:01N 57°11' W 001°60'4 7.7
2018-May-12 15:30N 57°09' W 002°05'0 0.0
2018-May-12 15:00N 57°09' W 002°05'0 0.0
2018-May-12 14:28N 57°09' W 002°05'0 0.0
2018-May-12 13:57N 57°09' W 002°05'0 0.0
2018-May-12 13:30N 57°09' W 002°05'0 0.0
2018-May-12 13:00N 57°09' W 002°05'0 0.0
2018-May-12 12:27N 57°09' W 002°05'0 0.0
2018-May-12 12:01N 57°09' W 002°05'0 0.0
2018-May-12 11:31N 57°09' W 002°05'0 0.0
2018-May-12 11:00N 57°09' W 002°05'0 0.0
2018-May-12 10:30N 57°09' W 002°05'0 0.0
2018-May-12 10:00N 57°09' W 002°05'0 0.0
2018-May-12 09:28N 57°09' W 002°05'0 0.0
2018-May-12 09:00N 57°09' W 002°05'0 0.0
2018-May-12 08:30N 57°09' W 002°05'0 0.0
2018-May-12 08:00N 57°09' W 002°05'0 0.0
2018-May-12 07:30N 57°09' W 002°05'0 0.7
2018-May-12 07:00N 57°09' W 002°05'611.3
2018-May-12 06:30N 57°13' W 001°58'714.4
2018-May-12 06:00N 57°19' W 001°51'714.2
2018-May-12 05:30N 57°26' W 001°45'713.3
2018-May-12 05:00N 57°32' W 001°42'713.3
2018-May-12 04:30N 57°39' W 001°42'813.4
2018-May-12 03:56N 57°46' W 001°42'613.8
2018-May-12 03:29N 57°52' W 001°41'75 1.6
2018-May-10 04:15N 59°03' W 002°29'415.4
2018-May-10 03:59N 59°00' W 002°35'816.2
2018-May-10 03:30N 59°00' W 002°51'4 7.7
2018-May-10 02:58N 58°60' W 002°58'0 0.0
2018-May-10 02:29N 58°60' W 002°58'0 0.0
2018-May-10 01:59N 58°60' W 002°58'0 0.0
2018-May-10 01:28N 58°60' W 002°58'0 0.0
2018-May-10 00:58N 58°60' W 002°58'2 4.4
2018-May-10 00:30N 59°01' W 002°55'816.1
2018-May-10 00:00N 58°59' W 002°40'7515.6
2018-May-09 19:13N 57°49' W 001°50'315.1
2018-May-09 19:00N 57°46' W 001°49'  
Track history (hours):
 
Tides and Currents Weather Stations Pressure Air Temp Water Temp Dewpoint Dewpoint Depression Visibility Wind Speed Wind Dir Waves Ship Positions

Helliar

Last reported at 2018-May-19 18:36 UTC. Time now 2018-May-21 05:25 UTC.
Position N 57°37' W 001°38'.

Length 122 m; draft 5.4 m.

Type: Cargo ship. MMSI: 235087119.

Date/timePositionNaut miles runAvg speedWind from/ knotsBaromVisibWave heightAir tempDewpointWater temp
2018-May-19 18:36N 57°37' W 001°38'313.9
2018-May-19 18:21N 57°33' W 001°38'513.7
2018-May-19 18:00N 57°29' W 001°39'813.6
2018-May-19 17:27N 57°21' W 001°44'713.1
2018-May-19 16:56N 57°16' W 001°51'613.0
2018-May-19 16:30N 57°12' W 001°57'5 9.8
2018-May-19 15:59N 57°09' W 002°05'0 0.0
2018-May-19 15:29N 57°09' W 002°05'0 0.0
2018-May-19 14:59N 57°09' W 002°05'0 0.0
2018-May-19 14:29N 57°09' W 002°05'0 0.0
2018-May-19 13:59N 57°09' W 002°05'0 0.0
2018-May-19 13:29N 57°09' W 002°05'0 0.0
2018-May-19 12:59N 57°09' W 002°05'0 0.0
2018-May-19 12:29N 57°09' W 002°05'0 0.0
2018-May-19 11:59N 57°09' W 002°05'0 0.0
2018-May-19 11:29N 57°09' W 002°05'0 0.0
2018-May-19 10:59N 57°09' W 002°05'0 0.0
2018-May-19 10:29N 57°09' W 002°05'0 0.0
2018-May-19 09:59N 57°09' W 002°05'0 0.0
2018-May-19 09:29N 57°09' W 002°05'0 0.0
2018-May-19 08:59N 57°09' W 002°05'0 0.0
2018-May-19 08:29N 57°09' W 002°05'0 0.0
2018-May-19 07:59N 57°09' W 002°05'0 0.0
2018-May-19 07:29N 57°09' W 002°05'0 0.0
2018-May-19 06:59N 57°09' W 002°05'0 0.7
2018-May-19 06:30N 57°08' W 002°04'611.0
2018-May-19 06:00N 57°12' W 001°57'612.1
2018-May-19 05:30N 57°17' W 001°51'612.1
2018-May-19 05:00N 57°22' W 001°44'612.4
2018-May-19 04:30N 57°28' W 001°39'713.1
2018-May-19 04:00N 57°34' W 001°37'2 0.1
2018-May-17 19:07N 57°36' W 001°39'317.3
2018-May-17 18:56N 57°33' W 001°39'717.1
2018-May-17 18:30N 57°26' W 001°40'1116.8
2018-May-17 17:50N 57°16' W 001°51'516.2
2018-May-17 17:30N 57°12' W 001°56'611.2
2018-May-17 17:00N 57°09' W 002°05'0 0.3
2018-May-17 16:29N 57°09' W 002°05'0 0.0
2018-May-17 15:59N 57°09' W 002°05'0 0.0
2018-May-17 15:29N 57°09' W 002°05'0 0.0
2018-May-17 14:59N 57°09' W 002°05'0 0.0
2018-May-17 14:29N 57°09' W 002°05'0 0.0
2018-May-17 13:59N 57°09' W 002°05'0 0.0
2018-May-17 13:29N 57°09' W 002°05'0 0.0
2018-May-17 12:59N 57°09' W 002°05'0 0.0
2018-May-17 12:29N 57°09' W 002°05'0 0.0
2018-May-17 11:59N 57°09' W 002°05'0 0.0
2018-May-17 11:29N 57°09' W 002°05'0 0.0
2018-May-17 10:59N 57°09' W 002°05'0 0.0
2018-May-17 10:29N 57°09' W 002°05'0 0.0
2018-May-17 09:59N 57°09' W 002°05'0 0.0
2018-May-17 09:29N 57°09' W 002°05'0 0.0
2018-May-17 08:59N 57°09' W 002°05'0 0.0
2018-May-17 08:29N 57°09' W 002°05'0 0.0
2018-May-17 07:59N 57°09' W 002°05'0 0.0
2018-May-17 07:29N 57°09' W 002°05'0 0.0
2018-May-17 06:59N 57°09' W 002°05'0 0.8
2018-May-17 06:30N 57°09' W 002°05'5 9.9
2018-May-17 06:00N 57°12' W 001°58'611.6
2018-May-17 05:30N 57°17' W 001°52'611.5
2018-May-17 05:00N 57°21' W 001°46'612.3
2018-May-17 04:30N 57°27' W 001°40'612.7
2018-May-17 04:00N 57°33' W 001°38'4 0.1
2018-May-15 18:45N 57°37' W 001°37'416.4
2018-May-15 18:30N 57°33' W 001°37'816.7
2018-May-15 18:00N 57°25' W 001°44'917.1
2018-May-15 17:28N 57°17' W 001°52'816.6
2018-May-15 17:00N 57°11' W 001°60'4 7.2
2018-May-15 16:30N 57°09' W 002°05'0 0.0
2018-May-15 16:00N 57°09' W 002°05'0 0.0
2018-May-15 15:30N 57°09' W 002°05'0 0.0
2018-May-15 15:00N 57°09' W 002°05'0 0.0
2018-May-15 14:30N 57°09' W 002°05'0 0.0
2018-May-15 14:00N 57°09' W 002°05'0 0.0
2018-May-15 13:30N 57°09' W 002°05'0 0.0
2018-May-15 13:00N 57°09' W 002°05'0 0.0
2018-May-15 12:30N 57°09' W 002°05'0 0.0
2018-May-15 12:00N 57°09' W 002°05'0 0.0
2018-May-15 11:30N 57°09' W 002°05'0 0.0
2018-May-15 11:00N 57°09' W 002°05'0 0.0
2018-May-15 10:30N 57°09' W 002°05'0 0.0
2018-May-15 10:00N 57°09' W 002°05'0 0.0
2018-May-15 09:30N 57°09' W 002°05'0 0.0
2018-May-15 09:00N 57°09' W 002°05'0 0.0
2018-May-15 08:30N 57°09' W 002°05'0 0.0
2018-May-15 08:00N 57°09' W 002°05'0 0.0
2018-May-15 07:30N 57°09' W 002°05'0 0.0
2018-May-15 07:00N 57°09' W 002°05'0 0.4
2018-May-15 06:30N 57°09' W 002°05'4 8.9
2018-May-15 06:00N 57°12' W 001°58'612.2
2018-May-15 05:30N 57°17' W 001°52'612.0
2018-May-15 05:00N 57°22' W 001°46'612.1
2018-May-15 04:30N 57°27' W 001°40'612.4
2018-May-15 04:00N 57°33' W 001°38'713.5
2018-May-15 03:30N 57°40' W 001°38'713.9
2018-May-15 02:59N 57°47' W 001°37'714.2
2018-May-15 02:29N 57°54' W 001°37'  
2018-May-12 18:49N 57°45' W 001°37'412.2
2018-May-12 18:30N 57°42' W 001°37'713.5
2018-May-12 18:00N 57°35' W 001°37'714.1
2018-May-12 17:30N 57°28' W 001°38'913.8
2018-May-12 16:51N 57°20' W 001°47'514.0
2018-May-12 16:31N 57°17' W 001°52'713.7
2018-May-12 16:01N 57°11' W 001°60'4 7.7
2018-May-12 15:30N 57°09' W 002°05'0 0.0
2018-May-12 15:00N 57°09' W 002°05'0 0.0
2018-May-12 14:28N 57°09' W 002°05'0 0.0
2018-May-12 13:57N 57°09' W 002°05'0 0.0
2018-May-12 13:30N 57°09' W 002°05'0 0.0
2018-May-12 13:00N 57°09' W 002°05'0 0.0
2018-May-12 12:27N 57°09' W 002°05'0 0.0
2018-May-12 12:01N 57°09' W 002°05'0 0.0
2018-May-12 11:31N 57°09' W 002°05'0 0.0
2018-May-12 11:00N 57°09' W 002°05'0 0.0
2018-May-12 10:30N 57°09' W 002°05'0 0.0
2018-May-12 10:00N 57°09' W 002°05'0 0.0
2018-May-12 09:28N 57°09' W 002°05'0 0.0
2018-May-12 09:00N 57°09' W 002°05'0 0.0
2018-May-12 08:30N 57°09' W 002°05'0 0.0
2018-May-12 08:00N 57°09' W 002°05'0 0.0
2018-May-12 07:30N 57°09' W 002°05'0 0.7
2018-May-12 07:00N 57°09' W 002°05'611.3
2018-May-12 06:30N 57°13' W 001°58'714.4
2018-May-12 06:00N 57°19' W 001°51'714.2
2018-May-12 05:30N 57°26' W 001°45'713.3
2018-May-12 05:00N 57°32' W 001°42'713.3
2018-May-12 04:30N 57°39' W 001°42'813.4
2018-May-12 03:56N 57°46' W 001°42'613.8
2018-May-12 03:29N 57°52' W 001°41'75 1.6
2018-May-10 04:15N 59°03' W 002°29'415.4
2018-May-10 03:59N 59°00' W 002°35'816.2
2018-May-10 03:30N 59°00' W 002°51'4 7.7
2018-May-10 02:58N 58°60' W 002°58'0 0.0
2018-May-10 02:29N 58°60' W 002°58'0 0.0
2018-May-10 01:59N 58°60' W 002°58'0 0.0
2018-May-10 01:28N 58°60' W 002°58'0 0.0
2018-May-10 00:58N 58°60' W 002°58'2 4.4
2018-May-10 00:30N 59°01' W 002°55'816.1
2018-May-10 00:00N 58°59' W 002°40'7515.6
2018-May-09 19:13N 57°49' W 001°50'315.1
2018-May-09 19:00N 57°46' W 001°49'  

Dump ship's entire track history